createdAt,value
2023-03-05T00:01:33.573Z,11.70
2023-03-05T00:04:04.347Z,13.40
2023-03-05T00:06:33.447Z,13.70
2023-03-05T00:09:01.598Z,11.80
2023-03-05T00:11:30.577Z,15.50
2023-03-05T00:13:59.891Z,12.20
2023-03-05T00:16:29.447Z,10.30
2023-03-05T00:18:59.308Z,14.10
2023-03-05T00:21:30.540Z,11.10
2023-03-05T00:24:01.713Z,14.40
2023-03-05T00:26:31.499Z,12.60
2023-03-05T00:28:59.913Z,14.40
2023-03-05T00:31:30.834Z,9.60
2023-03-05T00:34:05.438Z,13.10
2023-03-05T00:36:33.732Z,11.00
2023-03-05T00:39:01.747Z,13.20
2023-03-05T00:41:29.974Z,11.60
2023-03-05T00:43:58.173Z,14.20
2023-03-05T00:46:27.721Z,9.90
2023-03-05T00:48:57.251Z,12.40
2023-03-05T00:51:26.752Z,13.20
2023-03-05T00:53:55.596Z,9.10
2023-03-05T00:56:23.818Z,11.30
2023-03-05T00:58:53.457Z,11.90
2023-03-05T01:01:22.327Z,9.80
2023-03-05T01:03:50.889Z,9.80
2023-03-05T01:06:19.392Z,12.20
2023-03-05T01:08:47.432Z,10.70
2023-03-05T01:11:15.468Z,10.60
2023-03-05T01:13:43.490Z,13.40
2023-03-05T01:16:11.876Z,9.20
2023-03-05T01:18:40.672Z,9.10
2023-03-05T01:21:09.107Z,11.30
2023-03-05T01:23:37.684Z,11.60
2023-03-05T01:26:06.916Z,10.60
2023-03-05T01:28:34.851Z,11.70
2023-03-05T01:31:07.071Z,9.40
2023-03-05T01:33:35.192Z,10.90
2023-03-05T01:36:07.564Z,14.30
2023-03-05T01:38:35.637Z,11.50
2023-03-05T01:41:03.714Z,9.40
2023-03-05T01:43:31.782Z,12.80
2023-03-05T01:46:24.531Z,10.10
2023-03-05T01:48:59.329Z,9.80
2023-03-05T01:51:30.696Z,11.30
2023-03-05T01:54:01.028Z,9.60
2023-03-05T01:56:31.152Z,9.60
2023-03-05T01:59:03.848Z,11.30
2023-03-05T02:01:38.778Z,10.80
2023-03-05T02:04:09.591Z,10.60
2023-03-05T02:06:39.781Z,10.60
2023-03-05T02:09:07.781Z,11.20
2023-03-05T02:11:36.781Z,9.60
2023-03-05T02:14:07.323Z,10.30
2023-03-05T02:16:38.928Z,11.90
2023-03-05T02:19:10.928Z,10.50
2023-03-05T02:21:45.859Z,11.90
2023-03-05T02:24:16.766Z,10.30
2023-03-05T02:26:46.950Z,12.30
2023-03-05T02:29:19.536Z,11.40
2023-03-05T02:31:47.635Z,12.00
2023-03-05T02:34:16.156Z,11.40
2023-03-05T02:36:44.215Z,12.10
2023-03-05T02:39:12.926Z,12.10
2023-03-05T02:41:40.981Z,10.80
2023-03-05T02:44:09.551Z,12.10
2023-03-05T02:46:37.537Z,10.20
2023-03-05T02:49:06.007Z,16.00
2023-03-05T02:51:34.281Z,11.00
2023-03-05T02:54:02.660Z,12.30
2023-03-05T02:56:31.246Z,14.60
2023-03-05T02:59:01.666Z,13.50
2023-03-05T03:01:30.125Z,13.30
2023-03-05T03:03:59.569Z,13.20
2023-03-05T03:06:27.528Z,11.30
2023-03-05T03:08:55.614Z,13.10
2023-03-05T03:11:23.665Z,13.60
2023-03-05T03:13:51.732Z,12.90
2023-03-05T03:16:20.368Z,14.10
2023-03-05T03:18:49.150Z,12.40
2023-03-05T03:21:20.348Z,13.80
2023-03-05T03:23:48.555Z,14.50
2023-03-05T03:26:17.516Z,14.80
2023-03-05T03:28:46.109Z,12.60
2023-03-05T03:31:15.087Z,12.60
2023-03-05T03:33:43.268Z,12.00
2023-03-05T03:36:11.382Z,12.70
2023-03-05T03:38:39.655Z,11.30
2023-03-05T03:41:08.267Z,8.90
2023-03-05T03:43:36.900Z,11.00
2023-03-05T03:46:08.301Z,10.60
2023-03-05T03:48:36.611Z,10.80
2023-03-05T03:51:06.807Z,10.30
2023-03-05T03:53:34.922Z,14.30
2023-03-05T03:56:03.685Z,13.20
2023-03-05T03:58:32.608Z,9.10
2023-03-05T04:01:00.855Z,13.70
2023-03-05T04:03:28.881Z,15.30
2023-03-05T04:05:56.894Z,11.60
2023-03-05T04:08:24.964Z,12.80
2023-03-05T04:10:52.999Z,13.60
2023-03-05T04:13:21.129Z,12.80
2023-03-05T04:15:50.600Z,12.00
2023-03-05T04:18:18.790Z,12.80
2023-03-05T04:20:46.970Z,10.90
2023-03-05T04:23:15.162Z,11.90
2023-03-05T04:25:43.822Z,13.70
2023-03-05T04:28:12.818Z,12.20
2023-03-05T04:30:40.775Z,15.50
2023-03-05T04:33:08.854Z,14.40
2023-03-05T04:35:37.074Z,13.20
2023-03-05T04:38:05.194Z,13.50
2023-03-05T04:40:34.192Z,12.70
2023-03-05T04:43:02.828Z,11.50
2023-03-05T04:45:31.069Z,10.70
2023-03-05T04:47:59.214Z,13.10
2023-03-05T04:50:27.495Z,11.70
2023-03-05T04:52:55.501Z,12.90
2023-03-05T04:55:23.446Z,10.80
2023-03-05T04:57:51.398Z,11.60
2023-03-05T05:00:19.699Z,10.90
2023-03-05T05:02:50.169Z,10.40
2023-03-05T05:05:21.997Z,13.20
2023-03-05T05:07:50.545Z,11.20
2023-03-05T05:10:18.591Z,9.00
2023-03-05T05:12:46.462Z,9.90
2023-03-05T05:15:14.647Z,9.30
2023-03-05T05:17:42.576Z,7.60
2023-03-05T05:20:12.529Z,8.10
2023-03-05T05:22:40.650Z,8.50
2023-03-05T05:25:10.524Z,7.60
2023-03-05T05:27:40.086Z,6.70
2023-03-05T05:30:09.878Z,9.10
2023-03-05T05:32:37.897Z,8.40
2023-03-05T05:35:06.323Z,10.00
2023-03-05T05:46:45.268Z,9.30
2023-03-05T05:49:13.235Z,8.20
2023-03-05T05:51:41.419Z,8.30
2023-03-05T05:58:47.241Z,8.50
2023-03-05T06:01:31.020Z,8.00
2023-03-05T06:04:00.095Z,9.70
2023-03-05T06:11:03.204Z,9.60
2023-03-05T06:13:31.075Z,10.00
2023-03-05T06:16:01.038Z,10.10
2023-03-05T06:27:37.127Z,13.90
2023-03-05T06:30:06.751Z,12.80
2023-03-05T06:32:34.792Z,12.20
2023-03-05T06:35:03.274Z,12.60
2023-03-05T06:37:31.377Z,12.40
2023-03-05T06:39:59.340Z,11.30
2023-03-05T06:42:27.181Z,12.40
2023-03-05T06:44:55.053Z,11.50
2023-03-05T06:47:22.867Z,13.50
2023-03-05T06:49:50.849Z,11.10
2023-03-05T06:52:18.733Z,11.70
2023-03-05T06:54:46.566Z,13.20
2023-03-05T06:57:14.422Z,11.30
2023-03-05T06:59:42.238Z,12.40
2023-03-05T07:02:12.023Z,9.40
2023-03-05T07:04:40.563Z,10.30
2023-03-05T07:07:08.439Z,7.70
2023-03-05T07:09:42.816Z,10.70
2023-03-05T07:12:11.889Z,9.00
2023-03-05T07:14:39.787Z,8.80
2023-03-05T07:17:08.151Z,9.80
2023-03-05T07:19:36.153Z,10.50
2023-03-05T07:22:04.006Z,9.40
2023-03-05T07:24:31.850Z,9.60
2023-03-05T07:26:59.740Z,7.70
2023-03-05T07:29:28.471Z,10.10
2023-03-05T07:31:56.332Z,9.70
2023-03-05T07:34:26.806Z,8.10
2023-03-05T07:36:54.978Z,10.50
2023-03-05T07:39:23.317Z,7.80
2023-03-05T07:41:51.827Z,7.20
2023-03-05T07:44:27.148Z,8.40
2023-03-05T07:56:06.660Z,6.90
2023-03-05T08:03:08.997Z,8.50
2023-03-05T08:05:39.905Z,9.30
2023-03-05T08:08:08.692Z,8.40
2023-03-05T08:10:37.944Z,6.70
2023-03-05T08:13:06.314Z,7.20
2023-03-05T08:15:34.395Z,5.60
2023-03-05T08:18:02.366Z,8.10
2023-03-05T08:20:30.993Z,6.80
2023-03-05T08:22:58.987Z,6.80
2023-03-05T08:25:26.819Z,7.40
2023-03-05T08:27:55.123Z,5.80
2023-03-05T08:30:27.805Z,8.00
2023-03-05T08:32:56.220Z,8.70
2023-03-05T08:35:24.547Z,6.50
2023-03-05T08:37:52.468Z,7.40
2023-03-05T08:40:20.448Z,9.30
2023-03-05T08:42:48.492Z,7.60
2023-03-05T08:45:16.493Z,6.40
2023-03-05T08:47:44.333Z,6.20
2023-03-05T08:50:12.325Z,6.60
2023-03-05T08:52:40.322Z,8.30
2023-03-05T08:55:08.785Z,7.70
2023-03-05T08:57:36.660Z,8.30
2023-03-05T09:00:05.460Z,8.60
2023-03-05T09:02:33.542Z,9.40
2023-03-05T09:05:01.578Z,8.10
2023-03-05T09:07:30.022Z,9.80
2023-03-05T09:09:57.969Z,7.40
2023-03-05T09:12:25.920Z,9.80
2023-03-05T09:14:57.243Z,8.80
2023-03-05T09:17:25.335Z,8.20
2023-03-05T09:19:53.302Z,9.00
2023-03-05T09:22:21.320Z,8.90
2023-03-05T09:24:49.320Z,8.20
2023-03-05T09:27:17.359Z,9.90
2023-03-05T09:29:45.314Z,13.00
2023-03-05T09:32:13.284Z,10.50
2023-03-05T09:34:41.353Z,11.70
2023-03-05T09:37:09.348Z,9.90
2023-03-05T09:39:37.281Z,10.80
2023-03-05T09:42:27.149Z,12.90
2023-03-05T09:45:18.354Z,9.60
2023-03-05T09:47:56.976Z,12.00
2023-03-05T09:50:50.625Z,9.30
2023-03-05T09:53:34.315Z,10.20
2023-03-05T09:56:10.325Z,9.30
2023-03-05T09:58:44.146Z,11.20
2023-03-05T10:01:35.539Z,11.80
2023-03-05T10:04:13.849Z,16.90
2023-03-05T10:07:08.842Z,9.90
2023-03-05T10:09:50.601Z,9.50
2023-03-05T10:12:42.412Z,13.20
2023-03-05T10:15:26.980Z,13.10
2023-03-05T10:18:36.060Z,12.70
2023-03-05T10:21:16.786Z,13.60
2023-03-05T10:24:03.976Z,14.00
2023-03-05T10:26:45.156Z,13.70
2023-03-05T10:29:32.009Z,12.50
2023-03-05T10:32:10.553Z,12.10
2023-03-05T10:34:57.381Z,11.70
2023-03-05T10:38:03.682Z,11.80
2023-03-05T10:40:41.814Z,11.60
2023-03-05T10:43:27.506Z,13.10
2023-03-05T10:45:58.836Z,19.90
2023-03-05T10:48:45.826Z,12.20
2023-03-05T10:51:19.470Z,11.90
2023-03-05T10:53:59.847Z,12.70
2023-03-05T10:56:31.901Z,15.10
2023-03-05T10:58:59.998Z,11.40
2023-03-05T11:01:29.313Z,11.80
2023-03-05T11:04:03.729Z,9.90
2023-03-05T11:06:39.864Z,9.60
2023-03-05T11:09:32.910Z,8.60
2023-03-05T11:12:12.236Z,11.00
2023-03-05T11:15:20.220Z,11.00
2023-03-05T11:18:07.883Z,10.00
2023-03-05T11:20:40.865Z,9.30
2023-03-05T11:23:25.871Z,9.60
2023-03-05T11:26:25.331Z,9.30
2023-03-05T11:29:00.905Z,7.50
2023-03-05T11:31:35.234Z,7.00
2023-03-05T11:34:23.890Z,9.20
2023-03-05T11:37:08.898Z,8.40
2023-03-05T11:39:40.881Z,7.00
2023-03-05T11:42:25.931Z,8.80
2023-03-05T11:44:57.922Z,9.60
2023-03-05T11:47:56.798Z,10.30
2023-03-05T11:50:32.923Z,9.60
2023-03-05T11:53:29.898Z,9.90
2023-03-05T11:56:28.112Z,10.30
2023-03-05T11:59:12.976Z,11.70
2023-03-05T12:01:50.933Z,11.70
2023-03-05T12:04:22.936Z,16.20
2023-03-05T12:14:37.205Z,21.70
2023-03-05T12:17:14.086Z,17.20
2023-03-05T12:19:53.522Z,14.30
2023-03-05T12:22:24.256Z,15.80
2023-03-05T12:24:53.371Z,16.30
2023-03-05T12:27:47.849Z,11.70
2023-03-05T12:30:34.139Z,13.10
2023-03-05T12:33:04.611Z,13.20
2023-03-05T12:35:40.943Z,12.10
2023-03-05T12:38:26.705Z,11.20
2023-03-05T12:41:20.902Z,13.20
2023-03-05T12:44:07.318Z,32.80
2023-03-05T12:46:40.112Z,16.30
2023-03-05T12:49:28.531Z,14.60
2023-03-05T12:52:01.443Z,14.50
2023-03-05T12:54:31.535Z,12.40
2023-03-05T12:57:17.650Z,15.40
2023-03-05T12:59:56.351Z,24.80
2023-03-05T13:02:43.366Z,22.30
2023-03-05T13:05:23.364Z,18.00
2023-03-05T13:07:51.996Z,77.50
2023-03-05T13:10:29.458Z,32.70
2023-03-05T13:12:58.812Z,52.00
2023-03-05T13:15:27.206Z,20.40
2023-03-05T13:18:08.710Z,22.60
2023-03-05T13:20:38.672Z,17.50
2023-03-05T13:23:26.920Z,21.90
2023-03-05T13:25:59.698Z,66.30
2023-03-05T13:28:28.685Z,22.40
2023-03-05T13:31:04.038Z,24.90
2023-03-05T13:33:35.168Z,19.50
2023-03-05T13:36:05.178Z,27.60
2023-03-05T13:38:40.385Z,23.70
2023-03-05T13:41:20.298Z,22.10
2023-03-05T13:43:53.146Z,28.10
2023-03-05T13:46:31.708Z,19.20
2023-03-05T13:49:19.303Z,13.90
2023-03-05T13:51:51.438Z,12.70
2023-03-05T13:54:20.250Z,12.10
2023-03-05T13:56:50.980Z,11.20
2023-03-05T13:59:22.341Z,14.30
2023-03-05T14:01:51.738Z,15.40
2023-03-05T14:04:23.797Z,16.30
2023-03-05T14:06:56.984Z,12.10
2023-03-05T14:09:31.345Z,12.40
2023-03-05T14:12:05.347Z,11.40
2023-03-05T14:14:38.135Z,23.60
2023-03-05T14:17:27.385Z,17.90
2023-03-05T14:20:13.400Z,14.20
2023-03-05T14:22:45.481Z,11.70
2023-03-05T14:25:38.221Z,34.10
2023-03-05T14:28:18.748Z,17.50
2023-03-05T14:30:49.450Z,31.20
2023-03-05T14:33:38.295Z,32.80
2023-03-05T14:36:08.560Z,31.50
2023-03-05T14:38:42.987Z,19.10
2023-03-05T14:41:41.792Z,41.90
2023-03-05T14:44:15.995Z,48.60
2023-03-05T14:46:49.319Z,29.20
2023-03-05T14:49:18.055Z,46.20
2023-03-05T14:51:47.264Z,27.20
2023-03-05T14:54:21.091Z,23.70
2023-03-05T14:56:49.954Z,26.30
2023-03-05T14:59:21.141Z,30.90
2023-03-05T15:01:51.137Z,27.10
2023-03-05T15:04:20.163Z,25.20
2023-03-05T15:06:51.136Z,29.80
2023-03-05T15:09:21.259Z,22.70
2023-03-05T15:11:49.442Z,19.20
2023-03-05T15:14:17.515Z,15.30
2023-03-05T15:16:46.121Z,13.50
2023-03-05T15:19:14.159Z,10.10
2023-03-05T15:21:42.450Z,12.50
2023-03-05T15:24:11.494Z,18.90
2023-03-05T15:26:40.011Z,24.00
2023-03-05T15:29:07.948Z,16.00
2023-03-05T15:31:38.863Z,13.90
2023-03-05T15:34:07.297Z,14.60
2023-03-05T15:36:35.980Z,65.50
2023-03-05T15:39:04.154Z,73.20
2023-03-05T15:41:32.222Z,22.70
2023-03-05T15:44:00.247Z,51.40
2023-03-05T15:46:28.468Z,141.80
2023-03-05T15:48:56.752Z,118.10
2023-03-05T15:51:25.236Z,46.70
2023-03-05T15:53:54.573Z,43.40
2023-03-05T15:56:23.854Z,41.70
2023-03-05T15:58:52.626Z,32.90
2023-03-05T16:01:21.264Z,62.60
2023-03-05T16:03:51.256Z,72.30
2023-03-05T16:06:23.618Z,67.40
2023-03-05T16:08:56.201Z,41.70
2023-03-05T16:11:24.751Z,38.60
2023-03-05T16:13:52.823Z,46.50
2023-03-05T16:16:23.767Z,37.30
2023-03-05T16:18:53.618Z,36.00
2023-03-05T16:21:21.743Z,35.70
2023-03-05T16:23:50.152Z,38.90
2023-03-05T16:26:19.013Z,42.90
2023-03-05T16:28:46.966Z,24.20
2023-03-05T16:31:14.881Z,30.90
2023-03-05T16:33:42.922Z,25.50
2023-03-05T16:36:11.532Z,31.40
2023-03-05T16:38:39.574Z,26.40
2023-03-05T16:41:08.869Z,39.40
2023-03-05T16:43:37.070Z,35.20
2023-03-05T16:46:05.439Z,31.10
2023-03-05T16:48:33.404Z,39.40
2023-03-05T16:51:01.384Z,38.60
2023-03-05T16:53:29.739Z,37.50
2023-03-05T16:55:57.754Z,31.20
2023-03-05T16:58:25.886Z,33.20
2023-03-05T17:00:54.102Z,28.20
2023-03-05T17:03:22.840Z,24.30
2023-03-05T17:05:51.021Z,19.50
2023-03-05T17:08:19.189Z,14.90
2023-03-05T17:10:47.259Z,18.20
2023-03-05T17:13:15.332Z,27.00
2023-03-05T17:18:16.286Z,33.00
2023-03-05T17:20:44.287Z,34.90
2023-03-05T17:23:12.342Z,30.10
2023-03-05T17:25:40.292Z,27.10
2023-03-05T17:28:08.302Z,20.50
2023-03-05T17:30:37.357Z,21.30
2023-03-05T17:33:05.837Z,19.60
2023-03-05T17:35:35.537Z,17.70
2023-03-05T17:38:05.467Z,15.40
2023-03-05T17:40:34.558Z,16.10
2023-03-05T17:43:04.109Z,15.10
2023-03-05T17:45:32.825Z,14.90
2023-03-05T17:48:01.429Z,13.70
2023-03-05T17:50:29.706Z,14.10
2023-03-05T17:52:57.918Z,14.80
2023-03-05T17:55:25.958Z,15.50
2023-03-05T17:57:54.229Z,14.60
2023-03-05T18:00:24.736Z,18.00
2023-03-05T18:02:53.955Z,17.20
2023-03-05T18:05:24.310Z,14.90
2023-03-05T18:07:52.968Z,16.70
2023-03-05T18:10:22.778Z,17.10
2023-03-05T18:12:51.080Z,17.20
2023-03-05T18:15:21.404Z,16.70
2023-03-05T18:17:49.432Z,15.70
2023-03-05T18:20:28.184Z,16.20
2023-03-05T18:22:58.023Z,17.80
2023-03-05T18:25:31.342Z,19.00
2023-03-05T18:28:11.648Z,21.60
2023-03-05T18:30:41.136Z,19.70
2023-03-05T18:33:19.903Z,20.20
2023-03-05T18:35:52.076Z,19.10
2023-03-05T18:38:25.278Z,17.40
2023-03-05T18:40:55.354Z,18.40
2023-03-05T18:43:24.670Z,17.90
2023-03-05T18:45:55.378Z,18.80
2023-03-05T18:48:23.523Z,19.80
2023-03-05T18:50:53.989Z,18.80
2023-03-05T18:53:24.703Z,20.50
2023-03-05T18:55:53.513Z,19.00
2023-03-05T18:58:22.735Z,21.10
2023-03-05T19:00:52.091Z,18.80
2023-03-05T19:03:21.873Z,23.80
2023-03-05T19:05:51.455Z,20.90
2023-03-05T19:08:20.598Z,19.90
2023-03-05T19:10:48.589Z,20.40
2023-03-05T19:13:37.019Z,23.80
2023-03-05T19:16:30.388Z,18.90
2023-03-05T19:19:13.871Z,21.60
2023-03-05T19:21:48.301Z,20.60
2023-03-05T19:24:17.437Z,22.60
2023-03-05T19:26:46.334Z,21.70
2023-03-05T19:29:15.621Z,20.90
2023-03-05T19:31:43.613Z,21.00
2023-03-05T19:34:12.176Z,21.20
2023-03-05T19:36:40.146Z,21.20
2023-03-05T19:39:08.534Z,22.00
2023-03-05T19:41:37.204Z,22.20
2023-03-05T19:44:06.208Z,23.80
2023-03-05T19:46:34.348Z,25.40
2023-03-05T19:49:02.435Z,22.90
2023-03-05T19:51:30.752Z,24.40
2023-03-05T19:53:58.784Z,28.50
2023-03-05T19:56:27.075Z,21.80
2023-03-05T19:58:55.142Z,24.80
2023-03-05T20:01:27.865Z,23.40
2023-03-05T20:03:58.747Z,23.20
2023-03-05T20:06:28.106Z,23.20
2023-03-05T20:08:57.447Z,27.70
2023-03-05T20:11:26.896Z,25.40
2023-03-05T20:13:57.221Z,25.70
2023-03-05T20:16:29.844Z,26.30
2023-03-05T20:18:59.574Z,30.40
2023-03-05T20:21:30.839Z,27.90
2023-03-05T20:24:02.397Z,22.80
2023-03-05T20:26:31.258Z,23.80
2023-03-05T20:28:59.528Z,25.60
2023-03-05T20:31:28.374Z,23.50
2023-03-05T20:33:57.033Z,23.70
2023-03-05T20:36:25.129Z,26.10
2023-03-05T20:38:53.249Z,28.10
2023-03-05T20:41:22.035Z,29.10
2023-03-05T20:43:51.745Z,27.80
2023-03-05T20:46:26.330Z,28.40
2023-03-05T20:48:57.769Z,30.10
2023-03-05T20:51:38.026Z,26.60
2023-03-05T20:54:09.069Z,27.50
2023-03-05T20:56:38.112Z,28.70
2023-03-05T20:59:09.042Z,29.90
2023-03-05T21:01:40.211Z,25.50
2023-03-05T21:04:09.264Z,23.50
2023-03-05T21:06:37.463Z,24.40
2023-03-05T21:09:05.861Z,22.20
2023-03-05T21:11:35.962Z,27.20
2023-03-05T21:14:04.151Z,26.40
2023-03-05T21:16:32.510Z,22.50
2023-03-05T21:19:00.889Z,22.20
2023-03-05T21:29:03.566Z,22.10
2023-03-05T21:31:31.642Z,21.50
2023-03-05T21:34:00.145Z,23.10
2023-03-05T21:36:28.186Z,22.00
2023-03-05T21:38:56.153Z,25.10
2023-03-05T21:41:26.228Z,23.50
2023-03-05T21:43:54.299Z,26.90
2023-03-05T21:46:22.369Z,27.20
2023-03-05T21:48:50.567Z,23.10
2023-03-05T21:51:18.649Z,26.70
2023-03-05T21:53:46.690Z,25.60
2023-03-05T21:56:23.572Z,23.10
2023-03-05T21:58:52.657Z,24.00
2023-03-05T22:01:21.591Z,24.00
2023-03-05T22:03:50.521Z,25.70
2023-03-05T22:06:20.276Z,26.10
2023-03-05T22:08:48.838Z,22.90
2023-03-05T22:11:19.580Z,20.10
2023-03-05T22:13:47.657Z,21.10
2023-03-05T22:16:23.727Z,21.40
2023-03-05T22:18:52.787Z,19.80
2023-03-05T22:21:23.949Z,19.30
2023-03-05T22:23:53.632Z,21.20
2023-03-05T22:26:22.112Z,21.30
2023-03-05T22:28:50.616Z,17.90
2023-03-05T22:31:24.147Z,20.70
2023-03-05T22:33:52.574Z,18.50
2023-03-05T22:36:21.051Z,23.00
2023-03-05T22:38:49.534Z,19.90
2023-03-05T22:41:19.965Z,19.90
2023-03-05T22:43:49.573Z,23.30
2023-03-05T22:46:21.750Z,21.40
2023-03-05T22:48:50.620Z,25.90
2023-03-05T22:51:19.758Z,22.80
2023-03-05T22:53:47.786Z,21.60
2023-03-05T22:56:19.161Z,21.50
2023-03-05T22:58:47.920Z,21.90
2023-03-05T23:01:24.636Z,24.90
2023-03-05T23:04:03.614Z,22.40
2023-03-05T23:06:31.806Z,28.90
2023-03-05T23:09:00.389Z,24.60
2023-03-05T23:11:28.386Z,24.10
2023-03-05T23:13:56.533Z,26.30
2023-03-05T23:16:24.502Z,26.40
2023-03-05T23:18:52.472Z,26.50
2023-03-05T23:21:20.778Z,24.80
2023-03-05T23:23:48.816Z,27.40
2023-03-05T23:26:16.916Z,23.80
2023-03-05T23:28:44.864Z,23.10
2023-03-05T23:31:13.191Z,27.00
2023-03-05T23:33:41.426Z,24.70
2023-03-05T23:36:10.503Z,25.50
2023-03-05T23:38:38.509Z,25.30
2023-03-05T23:41:09.615Z,26.60
2023-03-05T23:43:37.584Z,26.80
2023-03-05T23:46:11.413Z,29.60
2023-03-05T23:48:40.967Z,25.30
2023-03-05T23:51:10.910Z,27.20
2023-03-05T23:53:38.980Z,30.10
2023-03-05T23:56:11.635Z,31.10
2023-03-05T23:58:40.141Z,28.20
